Julien, Iowa
Current Conditions -  °F | °C
As of 8:53 PM on Monday 22 Dec 2014 (Local Time) from KDBQ Reporting Station
Moderate Fog Moderate Fog  
Wind Chill: 30°   Ceiling: 200
Heat Index: 37°   Visibility: 0.5mi
Dew Point: 36°   Wind: 10mph
Humidity: 96%   Direction: 100°E
Pressure: 29.54"   Gusts: NA
Location:  42.549°N, 90.6988°W
Report Text: KDBQ 230253Z AUTO 10009KT 1/2SM R36/2600V2800FT FG VV002 03/02 A2954 RMK AO2 SLP011 T00280022 58009
Loading
Personal Weather Stations






























Interactive Weather Map New forecast layout! Learn more

10-Day Weather Forecast

Advertisements
Track Severe Weather on mobile